Аэропорт: Талаги. Архангельск

ICAO: ULAA

METAR:
2018/11/21 18:30
ULAA 211830Z 33004MPS 9999 -SHSNRA OVC008CB 01/01 Q1004 R26/590535 NOSIG RMK QFE751/1002
METAR:
2018/11/21 18:24
TAF TAF ULAA 211700Z 2118/2218 32003G09MPS 2100 -SN BR BKN004 BKN011 
      TEMPO 2118/2123 35004G14MPS 0500 +SHSN BKN002 BKN011CB 
      TEMPO 2123/2206 29004G15MPS 3100 -SHSN BKN011CB 
     FM220600 36004G11MPS 6000 -SN BKN011 
      TEMPO 2206/2214 30006G17MPS 3100 -SHSN BKN011CB